Portada
METAR-TAF:

METAR-TAF

Aeroports :

Arequipa, Perú

latitud: 16-19S, longitud: 071-33W, altitud: 2538 m

Observació

L'informe es va fer fa 1 hora i 13 minuts, a les 03:00 UTC
Vent 3 kt del Sud-Est
Temperatura 10°C
Humitat 34%
Pressió 1029 hPa
Visibilitat 10 km o més
sense núvols per sota de 1500 mi sense presència de cumulonimbus.

METAR: SPQU 220300Z 13003KT CAVOK 10/M05 Q1029 RMK PP000

Hora: 23:13 (04:13 UTC)

Pronòstic

L'informe es va fer fa 5 hores i 13 minuts, a les 23:00 UTC
Pronòstic vàlid del 22 a les 00 UTC al 22 a les 24 UTC
Vent 5 kt del Nord-Est
Visibilitat 10 km o més
sense núvols per sota de 1500 mi sense presència de cumulonimbus.
Evolucionant progressivament
l' 22 a les 15 UTC al 22 a les 17 UTC
Vent 11 kt del Oest/Sud-Oest
Evolucionant progressivament
l' 22 a les 22 UTC al 22 a les 24 UTC
Vent 5 kt del Est

TAF: SPQU 212300Z 2200/2224 05005KT CAVOK TX21/2219Z TN07/2211Z BECMG 2215/2217 25011KT BECMG 2222/2224 08005KT

Observacions i pronòstics meteorològics de més de 4000 aeroports (METAR i TAF).

Les estacions disponibles són els punts grocs i vermells al mapa.

Posi el ratolí al punt desitjat per veure el nom de l'estació.

Feu clic per veure les observacions i els pronòstics meteorològics.

Per canviar el mapa: feu clic els botons verds amb una creu de color negre per apropar; al botó verd amb un guió per allunyar la imatge; o en les fletxes verdes per a mapes adjacents.


METAR-TAF: